Time;durP1;ratioP1;P1;durP2;ratioP2;P2;SDS_P1;SDS_P2;PMS_P1;PMS_P2;Temp;Humidity;BMP_temperature;BMP_pressure;BME280_temperature;BME280_humidity;BME280_pressure;Samples;Min_cycle;Max_cycle;Signal;HPM_P1;HPM_P2
2023/05/02 00:02:14;;;;;;;1999.90;999.90;;;11.40;99.90;;;;;;5051208;28;20208;-72
2023/05/02 00:04:40;;;;;;;1999.90;999.90;;;11.30;99.90;;;;;;5051505;28;20206;-72
2023/05/02 00:07:06;;;;;;;1999.90;999.90;;;11.40;99.90;;;;;;5051645;28;20168;-72
2023/05/02 00:09:32;;;;;;;1999.90;999.90;;;11.30;99.90;;;;;;5051482;28;20676;-72
2023/05/02 00:11:57;;;;;;;1999.90;999.90;;;11.20;99.90;;;;;;5051187;28;20176;-72
2023/05/02 00:14:23;;;;;;;1999.90;999.90;;;11.20;99.90;;;;;;5051452;28;20226;-72
2023/05/02 00:16:49;;;;;;;1999.90;999.90;;;11.20;99.90;;;;;;5051495;28;20272;-72
2023/05/02 00:19:15;;;;;;;1999.90;999.90;;;11.10;99.90;;;;;;5051406;28;20443;-72
2023/05/02 00:21:40;;;;;;;1999.90;999.90;;;11.20;99.90;;;;;;5051260;28;20183;-72
2023/05/02 00:24:06;;;;;;;1999.90;999.90;;;11.20;99.90;;;;;;5051374;28;20223;-72
2023/05/02 00:26:31;;;;;;;1999.90;999.90;;;11.30;99.90;;;;;;5051412;28;20661;-72
2023/05/02 00:28:57;;;;;;;1999.90;999.90;;;11.20;99.90;;;;;;5051665;28;20259;-72
2023/05/02 00:31:23;;;;;;;1999.90;999.90;;;11.30;99.90;;;;;;5054851;28;20247;-72
2023/05/02 00:33:48;;;;;;;1999.90;999.90;;;11.20;99.90;;;;;;5054924;28;20975;-72
2023/05/02 00:36:15;;;;;;;1999.90;999.90;;;11.20;99.90;;;;;;5055152;28;20255;-72
2023/05/02 00:38:41;;;;;;;1999.90;999.90;;;11.00;99.90;;;;;;5054917;28;20346;-72
2023/05/02 00:41:06;;;;;;;1999.90;999.90;;;11.00;99.90;;;;;;5054638;28;20910;-72
2023/05/02 00:43:32;;;;;;;1999.90;999.90;;;11.00;99.90;;;;;;5054903;28;20211;-72
2023/05/02 00:45:58;;;;;;;1999.90;999.90;;;11.10;99.90;;;;;;5054922;28;20533;-72
2023/05/02 00:48:24;;;;;;;1999.90;999.90;;;11.10;99.90;;;;;;5054748;28;20182;-72
2023/05/02 00:50:50;;;;;;;1999.90;999.90;;;11.10;99.90;;;;;;5054644;28;20851;-72
2023/05/02 00:53:16;;;;;;;1999.90;999.90;;;11.00;99.90;;;;;;5054504;28;20422;-72
2023/05/02 00:55:41;;;;;;;1999.90;999.90;;;11.00;99.90;;;;;;5054731;28;20414;-72
2023/05/02 00:58:12;;;;;;;1999.90;999.90;;;11.10;99.90;;;;;;5054724;28;20648;-72
2023/05/02 01:01:16;;;;;;;1999.90;999.90;;;10.90;99.90;;;;;;5054594;28;20179;-72
2023/05/02 01:03:57;;;;;;;1999.90;999.90;;;10.80;99.90;;;;;;5054493;28;20461;-72
2023/05/02 01:06:45;;;;;;;1999.90;999.90;;;10.70;99.90;;;;;;5054568;28;20414;-72
2023/05/02 01:09:37;;;;;;;1999.90;999.90;;;10.70;99.90;;;;;;5054550;28;20406;-72
2023/05/02 01:12:31;;;;;;;1999.90;999.90;;;10.60;99.90;;;;;;5054225;28;20911;-72
2023/05/02 01:14:58;;;;;;;1999.90;999.90;;;10.60;99.90;;;;;;5054353;28;20997;-72
2023/05/02 01:17:28;;;;;;;1999.90;999.90;;;10.70;99.90;;;;;;5054292;28;20394;-72
2023/05/02 01:19:58;;;;;;;1999.90;999.90;;;10.60;99.90;;;;;;5054307;28;20437;-72
2023/05/02 01:22:26;;;;;;;1999.90;999.90;;;10.50;99.90;;;;;;5053932;28;20888;-72
2023/05/02 01:25:01;;;;;;;1999.90;999.90;;;10.50;99.90;;;;;;5054081;28;20469;-72
2023/05/02 01:27:35;;;;;;;1999.90;999.90;;;10.50;99.90;;;;;;5054309;28;20398;-72
2023/05/02 01:30:03;;;;;;;1999.90;999.90;;;10.40;99.90;;;;;;5054152;28;20448;-72
2023/05/02 01:32:32;;;;;;;1999.90;999.90;;;10.50;99.90;;;;;;5053666;28;20416;-72
2023/05/02 01:34:58;;;;;;;1999.90;999.90;;;10.50;99.90;;;;;;5053976;28;20433;-72
2023/05/02 01:37:26;;;;;;;1999.90;999.90;;;10.50;99.90;;;;;;5053764;28;20419;-72
2023/05/02 01:39:55;;;;;;;1999.90;999.90;;;10.60;99.90;;;;;;5053876;28;20409;-72
2023/05/02 01:42:22;;;;;;;1999.90;999.90;;;10.70;99.90;;;;;;5053011;28;20418;-72
2023/05/02 01:44:49;;;;;;;1999.90;999.90;;;10.60;99.90;;;;;;5053722;28;20432;-72
2023/05/02 01:47:17;;;;;;;1999.90;999.90;;;10.80;99.90;;;;;;5053763;28;20468;-72
2023/05/02 01:49:44;;;;;;;1999.90;999.90;;;10.60;99.90;;;;;;5053582;28;20449;-72
2023/05/02 01:52:12;;;;;;;1999.90;999.90;;;10.70;99.90;;;;;;5053427;28;20413;-72
2023/05/02 01:54:40;;;;;;;1999.90;999.90;;;10.60;99.90;;;;;;5053604;28;20460;-72
2023/05/02 01:57:07;;;;;;;1999.90;999.90;;;10.70;99.90;;;;;;5044328;28;20418;-72
2023/05/02 01:59:35;;;;;;;1999.90;999.90;;;10.70;99.90;;;;;;5033441;28;20411;-72
2023/05/02 02:02:02;;;;;;;1999.90;999.90;;;10.70;99.90;;;;;;5033101;28;20875;-72
2023/05/02 02:04:29;;;;;;;1999.90;999.90;;;10.70;99.90;;;;;;5033370;28;20912;-72
2023/05/02 02:07:05;;;;;;;1999.90;999.90;;;10.50;99.90;;;;;;5033650;28;20410;-72
2023/05/02 02:09:31;;;;;;;1999.90;999.90;;;10.40;99.90;;;;;;5033381;28;20430;-72
2023/05/02 02:12:11;;;;;;;1999.90;999.90;;;10.40;99.90;;;;;;5033204;28;20782;-72
2023/05/02 02:14:41;;;;;;;1999.90;999.90;;;10.40;99.90;;;;;;5033338;28;20200;-72
2023/05/02 02:17:14;;;;;;;1999.90;999.90;;;10.60;99.90;;;;;;5033288;28;20411;-72
2023/05/02 02:19:41;;;;;;;1999.90;999.90;;;10.50;99.90;;;;;;5033222;28;20463;-72
2023/05/02 02:22:08;;;;;;;1999.90;999.90;;;10.70;99.90;;;;;;5032981;28;20440;-72
2023/05/02 02:24:36;;;;;;;1999.90;999.90;;;10.70;99.90;;;;;;5033038;28;20594;-72
2023/05/02 02:27:02;;;;;;;1999.90;999.90;;;10.70;99.90;;;;;;5033072;28;20939;-72
2023/05/02 02:29:28;;;;;;;1999.90;999.90;;;10.70;99.90;;;;;;5032884;28;20418;-72
2023/05/02 02:31:53;;;;;;;1999.90;999.90;;;10.80;99.90;;;;;;5032804;28;20626;-72
2023/05/02 02:34:20;;;;;;;1999.90;999.90;;;10.90;99.90;;;;;;5032906;28;20433;-72
2023/05/02 02:36:56;;;;;;;1999.90;999.90;;;10.90;99.90;;;;;;5032886;28;20169;-72
2023/05/02 02:39:46;;;;;;;1999.90;999.90;;;10.90;99.90;;;;;;5032852;28;20518;-72
2023/05/02 02:42:35;;;;;;;1999.90;999.90;;;10.90;99.90;;;;;;5032670;28;20868;-72
2023/05/02 02:45:07;;;;;;;1999.90;999.90;;;11.00;99.90;;;;;;5032589;28;20787;-72
2023/05/02 02:47:44;;;;;;;1999.90;999.90;;;11.10;99.90;;;;;;5032724;28;20502;-72
2023/05/02 02:50:13;;;;;;;1999.90;999.90;;;11.00;99.90;;;;;;5032627;28;20508;-72
2023/05/02 02:52:47;;;;;;;1999.90;999.90;;;10.90;99.90;;;;;;5031621;28;20411;-72
2023/05/02 02:55:28;;;;;;;1999.90;999.90;;;10.90;99.90;;;;;;5032771;28;20423;-72
2023/05/02 02:58:06;;;;;;;1999.90;999.90;;;10.90;99.90;;;;;;5015585;28;20422;-71
2023/05/02 03:00:32;;;;;;;1999.90;999.90;;;10.90;99.90;;;;;;5033232;28;20421;-71
2023/05/02 03:02:59;;;;;;;1999.90;999.90;;;11.10;99.90;;;;;;5033263;28;20416;-71
2023/05/02 03:05:25;;;;;;;1999.90;999.90;;;10.90;99.90;;;;;;5033016;28;20506;-71
2023/05/02 03:07:51;;;;;;;1999.90;999.90;;;11.00;99.90;;;;;;5033184;28;20439;-71
2023/05/02 03:10:16;;;;;;;1999.90;999.90;;;10.90;99.90;;;;;;5033264;28;20458;-71
2023/05/02 03:12:42;;;;;;;1999.90;999.90;;;10.90;99.90;;;;;;5032759;28;20411;-71
2023/05/02 03:15:44;;;;;;;1999.90;999.90;;;10.90;99.90;;;;;;5033180;28;20263;-71
2023/05/02 03:18:10;;;;;;;1999.90;999.90;;;10.90;99.90;;;;;;5033372;28;20221;-71
2023/05/02 03:20:35;;;;;;;1999.90;999.90;;;10.90;99.90;;;;;;5033420;28;20411;-71
2023/05/02 03:23:01;;;;;;;1999.90;999.90;;;11.20;99.90;;;;;;5033778;28;20548;-72
2023/05/02 03:25:27;;;;;;;1999.90;999.90;;;10.90;99.90;;;;;;5034219;28;20176;-71
2023/05/02 03:27:52;;;;;;;1999.90;999.90;;;11.00;99.90;;;;;;5033711;28;20196;-73
2023/05/02 03:30:18;;;;;;;1999.90;999.90;;;11.00;99.90;;;;;;5034148;28;20287;-72
2023/05/02 03:32:44;;;;;;;1999.90;999.90;;;11.10;99.90;;;;;;5033606;28;20511;-72
2023/05/02 03:35:09;;;;;;;1999.90;999.90;;;11.10;99.90;;;;;;5034043;28;20195;-72
2023/05/02 03:37:35;;;;;;;1999.90;999.90;;;11.00;99.90;;;;;;5033646;28;20189;-71
2023/05/02 03:40:00;;;;;;;1999.90;999.90;;;11.00;99.90;;;;;;5033939;28;20630;-72
2023/05/02 03:42:26;;;;;;;1999.90;999.90;;;11.00;99.90;;;;;;5034019;28;20189;-72
2023/05/02 03:44:52;;;;;;;1999.90;999.90;;;11.10;99.90;;;;;;5034874;28;20185;-72
2023/05/02 03:47:18;;;;;;;1999.90;999.90;;;11.00;99.90;;;;;;5034706;28;20596;-72
2023/05/02 03:49:44;;;;;;;1999.90;999.90;;;11.00;99.90;;;;;;5035474;28;20447;-72
2023/05/02 03:52:09;;;;;;;1999.90;999.90;;;10.90;99.90;;;;;;5034683;28;20542;-72
2023/05/02 03:54:35;;;;;;;1999.90;999.90;;;10.90;99.90;;;;;;5033786;28;20260;-72
2023/05/02 03:57:03;;;;;;;1999.90;999.90;;;10.90;99.90;;;;;;5034935;28;20165;-72
2023/05/02 03:59:31;;;;;;;1999.90;999.90;;;10.90;99.90;;;;;;5034902;28;20311;-72
2023/05/02 04:01:57;;;;;;;1999.90;999.90;;;10.90;99.90;;;;;;5034138;28;20402;-72
2023/05/02 04:04:23;;;;;;;1999.90;999.90;;;10.90;99.90;;;;;;5035101;28;20908;-72
2023/05/02 04:06:49;;;;;;;1999.90;999.90;;;10.90;99.90;;;;;;5038338;28;20751;-72
2023/05/02 04:09:14;;;;;;;1999.90;999.90;;;10.90;99.90;;;;;;5038437;28;20626;-72
2023/05/02 04:11:40;;;;;;;1999.90;999.90;;;10.90;99.90;;;;;;5038711;28;20209;-71
2023/05/02 04:14:06;;;;;;;1999.90;999.90;;;11.00;99.90;;;;;;5039543;28;20238;-72
2023/05/02 04:16:32;;;;;;;1999.90;999.90;;;11.00;99.90;;;;;;5040206;28;20402;-72
2023/05/02 04:18:58;;;;;;;1999.90;999.90;;;11.00;99.90;;;;;;5040869;28;20177;-72
2023/05/02 04:21:23;;;;;;;1999.90;999.90;;;11.00;99.90;;;;;;5039509;28;20202;-73
2023/05/02 04:23:49;;;;;;;1999.90;999.90;;;10.90;99.90;;;;;;5039951;28;20427;-72
2023/05/02 04:26:15;;;;;;;1999.90;999.90;;;10.90;99.90;;;;;;5041323;28;20188;-72
2023/05/02 04:28:41;;;;;;;1999.90;999.90;;;10.90;99.90;;;;;;5042573;28;20550;-72
2023/05/02 04:31:07;;;;;;;1999.90;999.90;;;10.70;99.90;;;;;;5042014;28;20458;-71
2023/05/02 04:33:32;;;;;;;1999.90;999.90;;;10.90;99.90;;;;;;5041869;28;20195;-71
2023/05/02 04:35:58;;;;;;;1999.90;999.90;;;10.80;99.90;;;;;;5041614;28;20609;-72
2023/05/02 04:38:23;;;;;;;1999.90;999.90;;;10.80;99.90;;;;;;5040788;28;20192;-72
2023/05/02 04:40:51;;;;;;;1999.90;999.90;;;11.00;99.90;;;;;;5039036;28;20176;-72
2023/05/02 04:43:16;;;;;;;1999.90;999.90;;;10.80;99.90;;;;;;5036475;28;20251;-71
2023/05/02 04:45:42;;;;;;;1999.90;999.90;;;11.00;99.90;;;;;;5019119;28;20952;-71
2023/05/02 04:48:07;;;;;;;1999.90;999.90;;;11.00;99.90;;;;;;5036672;28;20180;-71
2023/05/02 04:50:33;;;;;;;1999.90;999.90;;;11.00;99.90;;;;;;5037003;28;20229;-71
2023/05/02 04:52:59;;;;;;;1999.90;999.90;;;11.10;99.90;;;;;;5035653;28;20181;-71
2023/05/02 04:55:24;;;;;;;1999.90;999.90;;;11.10;99.90;;;;;;5035891;28;20174;-71
2023/05/02 04:57:50;;;;;;;1999.90;999.90;;;11.20;99.90;;;;;;5036254;28;20180;-71
2023/05/02 05:00:16;;;;;;;1999.90;999.90;;;11.20;99.90;;;;;;5036243;28;20222;-71
2023/05/02 05:02:42;;;;;;;1999.90;999.90;;;11.10;99.90;;;;;;5035803;28;20406;-71
2023/05/02 05:05:07;;;;;;;1999.90;999.90;;;11.10;99.90;;;;;;5036093;28;20189;-71
2023/05/02 05:07:33;;;;;;;1999.90;999.90;;;11.20;99.90;;;;;;5035974;28;20168;-71
2023/05/02 05:09:59;;;;;;;1999.90;999.90;;;11.20;99.90;;;;;;5035944;28;20200;-71
2023/05/02 05:12:24;;;;;;;1999.90;999.90;;;11.10;99.90;;;;;;5035767;28;20538;-71
2023/05/02 05:14:50;;;;;;;1999.90;999.90;;;11.10;99.90;;;;;;5035864;28;20188;-71
2023/05/02 05:17:16;;;;;;;1999.90;999.90;;;11.00;99.90;;;;;;5035157;28;20157;-71
2023/05/02 05:19:41;;;;;;;1999.90;999.90;;;11.00;99.90;;;;;;5035780;28;20227;-71
2023/05/02 05:22:07;;;;;;;1999.90;999.90;;;11.10;99.90;;;;;;5035509;28;20169;-71
2023/05/02 05:24:32;;;;;;;1999.90;999.90;;;11.10;99.90;;;;;;5036470;28;20189;-72
2023/05/02 05:26:58;;;;;;;1999.90;999.90;;;11.10;99.90;;;;;;5038221;28;20641;-71
2023/05/02 05:29:24;;;;;;;1999.90;999.90;;;11.00;99.90;;;;;;5039022;28;20200;-72
2023/05/02 05:31:49;;;;;;;1999.90;999.90;;;11.00;99.90;;;;;;5037559;28;20183;-72
2023/05/02 05:34:15;;;;;;;1999.90;999.90;;;11.10;99.90;;;;;;5038385;28;20188;-72
2023/05/02 05:36:41;;;;;;;1999.90;999.90;;;11.10;99.90;;;;;;5038883;28;20164;-72
2023/05/02 05:39:07;;;;;;;1999.90;999.90;;;11.00;99.90;;;;;;5039089;28;20565;-72
2023/05/02 05:41:34;;;;;;;1999.90;999.90;;;11.00;99.90;;;;;;5036952;28;20403;-71
2023/05/02 05:43:59;;;;;;;1999.90;999.90;;;11.00;99.90;;;;;;5036324;28;20671;-71
2023/05/02 05:46:25;;;;;;;1999.90;999.90;;;11.10;99.90;;;;;;5035527;28;20404;-71
2023/05/02 05:48:51;;;;;;;1999.90;999.90;;;10.90;99.90;;;;;;5035681;28;20419;-71
2023/05/02 05:51:17;;;;;;;1999.90;999.90;;;10.90;99.90;;;;;;5035639;28;20192;-71
2023/05/02 05:53:42;;;;;;;1999.90;999.90;;;10.70;99.90;;;;;;5036002;28;20438;-71
2023/05/02 05:56:12;;;;;;;1999.90;999.90;;;10.70;99.90;;;;;;5036748;28;20253;-71
2023/05/02 05:58:39;;;;;;;1999.90;999.90;;;10.70;99.90;;;;;;5036591;28;20538;-71
2023/05/02 06:01:05;;;;;;;1999.90;999.90;;;10.60;99.90;;;;;;5037160;28;20503;-71
2023/05/02 06:03:31;;;;;;;1999.90;999.90;;;10.50;99.90;;;;;;5036031;28;20439;-71
2023/05/02 06:05:56;;;;;;;1999.90;999.90;;;10.60;99.90;;;;;;5035079;28;20399;-71
2023/05/02 06:08:22;;;;;;;1999.90;999.90;;;10.70;99.90;;;;;;5035519;28;20407;-71
2023/05/02 06:10:47;;;;;;;1999.90;999.90;;;10.60;99.90;;;;;;5034809;28;20279;-71
2023/05/02 06:13:13;;;;;;;1999.90;999.90;;;10.70;99.90;;;;;;5017212;28;20172;-71
2023/05/02 06:15:39;;;;;;;1999.90;999.90;;;10.60;99.90;;;;;;5035283;28;20161;-71
2023/05/02 06:18:04;;;;;;;1999.90;999.90;;;10.70;99.90;;;;;;5034863;28;20518;-71
2023/05/02 06:20:30;;;;;;;1999.90;999.90;;;10.70;99.90;;;;;;5034905;28;20184;-71
2023/05/02 06:22:55;;;;;;;1999.90;999.90;;;10.80;99.90;;;;;;5034659;28;20195;-71
2023/05/02 06:25:21;;;;;;;1999.90;999.90;;;10.80;99.90;;;;;;5034754;28;20653;-71
2023/05/02 06:27:46;;;;;;;1999.90;999.90;;;10.90;99.90;;;;;;5034964;28;20302;-71
2023/05/02 06:30:12;;;;;;;1999.90;999.90;;;10.70;99.90;;;;;;5033726;28;20242;-72
2023/05/02 06:32:41;;;;;;;1999.90;999.90;;;10.90;99.90;;;;;;5032785;28;20196;-72
2023/05/02 06:35:07;;;;;;;1999.90;999.90;;;10.80;99.90;;;;;;5032833;28;20457;-72
2023/05/02 06:37:35;;;;;;;1999.90;999.90;;;10.90;99.90;;;;;;5032820;28;20419;-72
2023/05/02 06:40:01;;;;;;;1999.90;999.90;;;11.00;99.90;;;;;;5032908;28;20176;-72
2023/05/02 06:42:27;;;;;;;1999.90;999.90;;;11.10;99.90;;;;;;5032746;28;20410;-72
2023/05/02 06:44:52;;;;;;;1999.90;999.90;;;11.20;99.90;;;;;;5032803;28;20433;-72
2023/05/02 06:47:18;;;;;;;1999.90;999.90;;;11.20;99.90;;;;;;5032769;28;20407;-72
2023/05/02 06:49:44;;;;;;;1999.90;999.90;;;11.10;99.90;;;;;;5032569;28;20207;-72
2023/05/02 06:52:09;;;;;;;1999.90;999.90;;;11.10;99.90;;;;;;5032394;28;20248;-72
2023/05/02 06:54:35;;;;;;;1999.90;999.90;;;11.10;99.90;;;;;;5032549;28;20657;-72
2023/05/02 06:57:01;;;;;;;1999.90;999.90;;;11.20;99.90;;;;;;5032554;28;20165;-72
2023/05/02 06:59:27;;;;;;;1999.90;999.90;;;11.30;99.90;;;;;;5032654;28;20230;-72
2023/05/02 07:01:52;;;;;;;1999.90;999.90;;;11.20;99.90;;;;;;5032209;28;20403;-72
2023/05/02 07:04:18;;;;;;;1999.90;999.90;;;11.20;99.90;;;;;;5032407;28;20669;-72
2023/05/02 07:06:45;;;;;;;1999.90;999.90;;;11.40;99.90;;;;;;5032327;28;20164;-72
2023/05/02 07:09:11;;;;;;;1999.90;999.90;;;11.40;99.90;;;;;;5032143;28;20545;-72
2023/05/02 07:11:36;;;;;;;1999.90;999.90;;;11.50;99.90;;;;;;5031878;28;20455;-71
2023/05/02 07:14:02;;;;;;;1999.90;999.90;;;11.50;99.90;;;;;;5032242;28;20556;-71
2023/05/02 07:16:27;;;;;;;1999.90;999.90;;;11.40;99.90;;;;;;5032297;28;20255;-72
2023/05/02 07:18:53;;;;;;;1999.90;999.90;;;11.30;99.90;;;;;;5032207;28;20667;-71
2023/05/02 07:21:19;;;;;;;1999.90;999.90;;;11.40;99.90;;;;;;5031962;28;20176;-72
2023/05/02 07:23:44;;;;;;;1999.90;999.90;;;11.40;99.90;;;;;;5032065;28;20191;-72
2023/05/02 07:26:10;;;;;;;1999.90;999.90;;;11.40;99.90;;;;;;5032089;28;20543;-72
2023/05/02 07:28:35;;;;;;;1999.90;999.90;;;11.50;99.90;;;;;;5032100;28;20173;-72
2023/05/02 07:31:01;;;;;;;1999.90;999.90;;;11.40;99.90;;;;;;5031693;28;20202;-72
2023/05/02 07:33:27;;;;;;;1999.90;999.90;;;11.30;99.90;;;;;;5031937;28;20853;-72
2023/05/02 07:35:52;;;;;;;1999.90;999.90;;;11.20;99.90;;;;;;5037700;28;20184;-71
2023/05/02 07:38:18;;;;;;;1999.90;999.90;;;11.10;99.90;;;;;;5037022;28;20663;-71
2023/05/02 07:40:45;;;;;;;1999.90;999.90;;;11.30;99.90;;;;;;5036213;28;20176;-71
2023/05/02 07:43:10;;;;;;;1999.90;999.90;;;11.40;99.90;;;;;;5035763;28;20187;-72
2023/05/02 07:45:36;;;;;;;1999.90;999.90;;;11.40;99.90;;;;;;5036251;28;20411;-71
2023/05/02 07:48:03;;;;;;;1999.90;999.90;;;11.40;99.90;;;;;;5034327;28;20173;-71
2023/05/02 07:50:28;;;;;;;1999.90;999.90;;;11.50;99.90;;;;;;5030020;28;20193;-71
2023/05/02 07:52:54;;;;;;;1999.90;999.90;;;11.60;99.90;;;;;;5033278;28;20979;-71
2023/05/02 07:55:20;;;;;;;1999.90;999.90;;;11.60;99.90;;;;;;5033580;28;20259;-71
2023/05/02 07:57:46;;;;;;;1999.90;999.90;;;11.60;99.90;;;;;;5032705;28;20496;-71
2023/05/02 08:00:12;;;;;;;1999.90;999.90;;;11.70;99.90;;;;;;5015652;28;20252;-71
2023/05/02 08:02:38;;;;;;;1999.90;999.90;;;11.80;99.90;;;;;;5033045;28;20176;-71
2023/05/02 08:05:03;;;;;;;1999.90;999.90;;;11.90;99.90;;;;;;5032332;28;20458;-71
2023/05/02 08:07:30;;;;;;;1999.90;999.90;;;12.00;99.90;;;;;;5015698;28;20708;-71
2023/05/02 08:09:56;;;;;;;1999.90;999.90;;;12.00;99.90;;;;;;5033040;28;20193;-71
2023/05/02 08:12:21;;;;;;;1999.90;999.90;;;12.00;99.90;;;;;;5011363;28;20412;-71
2023/05/02 08:14:47;;;;;;;1999.90;999.90;;;12.00;99.90;;;;;;5065831;23;20220;-72
2023/05/02 08:17:12;;;;;;;1999.90;999.90;;;12.00;99.90;;;;;;5008973;28;20189;-70
2023/05/02 08:19:38;;;;;;;1999.90;999.90;;;12.10;99.90;;;;;;5008278;28;20200;-70
2023/05/02 08:22:03;;;;;;;1999.90;999.90;;;12.00;99.90;;;;;;5008394;28;20271;-70
2023/05/02 08:24:30;;;;;;;1999.90;999.90;;;12.00;99.90;;;;;;5008006;28;21647;-71
2023/05/02 08:26:55;;;;;;;1999.90;999.90;;;12.10;99.90;;;;;;5007345;28;20244;-71
2023/05/02 08:29:22;;;;;;;1999.90;999.90;;;12.30;99.90;;;;;;5008214;28;20428;-71
2023/05/02 08:31:48;;;;;;;1999.90;999.90;;;12.30;99.90;;;;;;5007508;28;20201;-71
2023/05/02 08:34:13;;;;;;;1999.90;999.90;;;12.30;99.90;;;;;;5006931;28;20437;-70
2023/05/02 08:36:39;;;;;;;1999.90;999.90;;;12.30;99.90;;;;;;5010653;28;20173;-73
2023/05/02 08:39:06;;;;;;;1999.90;999.90;;;12.20;99.90;;;;;;5011566;28;20181;-73
2023/05/02 08:41:32;;;;;;;1999.90;999.90;;;12.10;99.90;;;;;;5011539;28;20186;-73
2023/05/02 08:43:58;;;;;;;1999.90;999.90;;;12.10;99.90;;;;;;5013907;28;20844;-72
2023/05/02 08:46:25;;;;;;;1999.90;999.90;;;12.10;99.90;;;;;;5013125;28;20213;-73
2023/05/02 08:48:52;;;;;;;1999.90;999.90;;;12.20;99.90;;;;;;5012424;28;20416;-72
2023/05/02 08:51:18;;;;;;;1999.90;999.90;;;12.20;99.90;;;;;;5015173;28;20456;-72
2023/05/02 08:53:44;;;;;;;1999.90;999.90;;;12.30;99.90;;;;;;5010818;28;20438;-71
2023/05/02 08:56:11;;;;;;;1999.90;999.90;;;12.40;99.90;;;;;;5010128;28;20426;-71
2023/05/02 08:58:39;;;;;;;1999.90;999.90;;;12.60;99.90;;;;;;5011308;28;20417;-71
2023/05/02 09:01:16;;;;;;;1999.90;999.90;;;12.70;99.90;;;;;;5010551;28;20456;-71
2023/05/02 09:03:46;;;;;;;1999.90;999.90;;;12.70;99.90;;;;;;5010442;28;20441;-74
2023/05/02 09:06:20;;;;;;;1999.90;999.90;;;12.70;99.90;;;;;;5011135;28;20424;-72
2023/05/02 09:08:48;;;;;;;1999.90;999.90;;;12.80;99.90;;;;;;5011659;28;20421;-71
2023/05/02 09:11:14;;;;;;;1999.90;999.90;;;12.80;99.90;;;;;;5011430;28;20467;-72
2023/05/02 09:13:44;;;;;;;1999.90;999.90;;;12.80;99.90;;;;;;5012138;28;20485;-74
2023/05/02 09:16:12;;;;;;;1999.90;999.90;;;12.90;99.90;;;;;;5011889;28;21038;-74
2023/05/02 09:18:39;;;;;;;1999.90;999.90;;;12.70;99.90;;;;;;5011746;28;20429;-72
2023/05/02 09:21:13;;;;;;;1999.90;999.90;;;12.60;99.90;;;;;;5006891;28;20423;-69
2023/05/02 09:23:41;;;;;;;1999.90;999.90;;;12.40;99.90;;;;;;4990424;28;20443;-71
2023/05/02 09:26:17;;;;;;;1999.90;999.90;;;12.50;99.90;;;;;;4990294;28;20423;-71
2023/05/02 09:28:48;;;;;;;1999.90;999.90;;;12.70;99.90;;;;;;4991403;28;20428;-74
2023/05/02 09:31:18;;;;;;;1999.90;999.90;;;13.10;99.90;;;;;;4995729;28;21003;-71
2023/05/02 09:33:44;;;;;;;1999.90;999.90;;;13.50;99.90;;;;;;4995356;28;20480;-72
2023/05/02 09:36:13;;;;;;;1999.90;999.90;;;13.60;99.90;;;;;;4994888;28;20425;-73
2023/05/02 09:38:40;;;;;;;1999.90;999.90;;;13.60;99.90;;;;;;4992198;28;20410;-74
2023/05/02 09:41:05;;;;;;;1999.90;999.90;;;13.80;99.90;;;;;;4990232;28;20511;-74
2023/05/02 09:43:31;;;;;;;1999.90;999.90;;;14.00;99.90;;;;;;4989983;28;20899;-72
2023/05/02 09:46:00;;;;;;;1999.90;999.90;;;13.90;99.90;;;;;;4990853;28;20199;-74
2023/05/02 09:48:27;;;;;;;1999.90;999.90;;;13.40;99.90;;;;;;4990604;28;20410;-72
2023/05/02 09:50:53;;;;;;;1999.90;999.90;;;13.20;99.90;;;;;;4989873;28;21006;-73
2023/05/02 09:53:19;;;;;;;1999.90;999.90;;;13.20;99.90;;;;;;4989623;28;20451;-73
2023/05/02 09:55:44;;;;;;;1999.90;999.90;;;13.20;99.90;;;;;;4990194;28;20430;-70
2023/05/02 09:58:23;;;;;;;1999.90;999.90;;;13.20;99.90;;;;;;4989453;28;20855;-72
2023/05/02 10:00:50;;;;;;;1999.90;999.90;;;13.20;99.90;;;;;;4989796;28;20212;-71
2023/05/02 10:03:17;;;;;;;1999.90;999.90;;;13.40;99.90;;;;;;4988671;28;20424;-72
2023/05/02 10:05:44;;;;;;;1999.90;999.90;;;13.60;99.90;;;;;;4990113;28;20430;-71
2023/05/02 10:08:11;;;;;;;1999.90;999.90;;;13.90;99.90;;;;;;4989521;28;20414;-71
2023/05/02 10:10:39;;;;;;;1999.90;999.90;;;14.10;99.90;;;;;;4989268;28;20470;-72
2023/05/02 10:13:07;;;;;;;1999.90;999.90;;;13.80;99.90;;;;;;4989880;28;20415;-71
2023/05/02 10:15:41;;;;;;;1999.90;999.90;;;14.00;99.90;;;;;;4989239;28;20544;-71
2023/05/02 10:18:23;;;;;;;1999.90;999.90;;;13.70;99.90;;;;;;4988930;28;20424;-71
2023/05/02 10:21:02;;;;;;;1999.90;999.90;;;13.30;99.90;;;;;;4989193;28;20421;-71
2023/05/02 10:23:28;;;;;;;1999.90;999.90;;;13.00;99.90;;;;;;4989436;28;20439;-71
2023/05/02 10:25:56;;;;;;;1999.90;999.90;;;12.80;99.90;;;;;;4988402;28;20430;-71
2023/05/02 10:28:22;;;;;;;1999.90;999.90;;;12.60;99.90;;;;;;4989791;28;20421;-72
2023/05/02 10:30:50;;;;;;;1999.90;999.90;;;12.60;99.90;;;;;;4989157;28;20484;-71
2023/05/02 10:33:17;;;;;;;1999.90;999.90;;;12.50;99.90;;;;;;4988479;28;20417;-71
2023/05/02 10:35:47;;;;;;;1999.90;999.90;;;12.40;99.90;;;;;;4989662;28;20915;-72
2023/05/02 10:38:23;;;;;;;1999.90;999.90;;;12.30;99.90;;;;;;4989828;28;20449;-71
2023/05/02 10:40:59;;;;;;;1999.90;999.90;;;12.20;99.90;;;;;;4989296;28;20531;-71
2023/05/02 10:43:27;;;;;;;1999.90;999.90;;;12.20;99.90;;;;;;4989333;28;21208;-71
2023/05/02 10:45:53;;;;;;;1999.90;999.90;;;12.00;99.90;;;;;;4989083;28;20495;-71
2023/05/02 10:48:21;;;;;;;1999.90;999.90;;;11.80;99.90;;;;;;4989390;28;20425;-71
2023/05/02 10:50:50;;;;;;;1999.90;999.90;;;11.80;99.90;;;;;;4989255;28;20458;-71
2023/05/02 10:53:35;;;;;;;1999.90;999.90;;;11.60;99.90;;;;;;4988568;28;20424;-71
2023/05/02 10:56:13;;;;;;;1999.90;999.90;;;11.80;99.90;;;;;;4988718;28;20413;-71
2023/05/02 10:58:39;;;;;;;1999.90;999.90;;;11.90;99.90;;;;;;4989218;28;20969;-71
2023/05/02 11:01:23;;;;;;;1999.90;999.90;;;12.00;99.90;;;;;;4988655;28;20456;-71
2023/05/02 11:03:57;;;;;;;1999.90;999.90;;;12.10;99.90;;;;;;4988130;28;20429;-71
2023/05/02 11:06:28;;;;;;;1999.90;999.90;;;12.00;99.90;;;;;;4988592;28;20413;-71
2023/05/02 11:09:13;;;;;;;1999.90;999.90;;;12.00;99.90;;;;;;4988342;28;20473;-72
2023/05/02 11:11:43;;;;;;;1999.90;999.90;;;12.20;99.90;;;;;;4988209;28;20487;-71
2023/05/02 11:14:10;;;;;;;1999.90;999.90;;;12.30;99.90;;;;;;4987677;28;20936;-72
2023/05/02 11:17:14;;;;;;;1999.90;999.90;;;12.50;99.90;;;;;;4988736;28;20874;-71
2023/05/02 11:19:43;;;;;;;1999.90;999.90;;;12.30;99.90;;;;;;4909828;29;20707;-71
2023/05/02 11:22:32;;;;;;;1999.90;999.90;;;11.90;99.90;;;;;;4909053;29;20433;-71
2023/05/02 11:24:58;;;;;;;1999.90;999.90;;;11.90;99.90;;;;;;4954004;28;20536;-71
2023/05/02 11:27:29;;;;;;;1999.90;999.90;;;11.90;99.90;;;;;;4988473;28;20931;-71
2023/05/02 11:29:56;;;;;;;1999.90;999.90;;;11.90;99.90;;;;;;4988206;28;20237;-71
2023/05/02 11:32:22;;;;;;;1999.90;999.90;;;12.10;99.90;;;;;;4988366;28;20421;-71
2023/05/02 11:34:51;;;;;;;1999.90;999.90;;;12.30;99.90;;;;;;4988265;28;20429;-71
2023/05/02 11:37:18;;;;;;;1999.90;999.90;;;12.70;99.90;;;;;;4988126;28;20507;-71
2023/05/02 11:39:47;;;;;;;1999.90;999.90;;;13.10;99.90;;;;;;4988285;28;20423;-72
2023/05/02 11:42:33;;;;;;;1999.90;999.90;;;13.50;99.90;;;;;;4988666;28;20427;-71
2023/05/02 11:44:59;;;;;;;1999.90;999.90;;;13.60;99.90;;;;;;4988521;28;20428;-72
2023/05/02 11:47:29;;;;;;;1999.90;999.90;;;13.60;99.90;;;;;;4990242;28;20426;-71
2023/05/02 11:49:56;;;;;;;1999.90;999.90;;;13.60;99.90;;;;;;5007263;28;20420;-71
2023/05/02 11:52:22;;;;;;;1999.90;999.90;;;13.90;99.90;;;;;;5007496;28;20471;-72
2023/05/02 11:54:48;;;;;;;1999.90;999.90;;;14.20;99.90;;;;;;5007500;28;20428;-71
2023/05/02 11:57:14;;;;;;;1999.90;999.90;;;14.30;99.90;;;;;;5007389;28;20426;-72
2023/05/02 11:59:53;;;;;;;1999.90;999.90;;;14.30;99.90;;;;;;5008091;28;20415;-72
2023/05/02 12:02:33;;;;;;;1999.90;999.90;;;14.20;99.90;;;;;;5007198;28;20261;-72
2023/05/02 12:04:59;;;;;;;1999.90;999.90;;;14.40;99.90;;;;;;5007550;28;20450;-72